createdAt,value
2023-04-18T00:00:06.897Z,75.68
2023-04-18T00:02:40.579Z,75.84
2023-04-18T00:05:12.842Z,75.87
2023-04-18T00:07:41.488Z,75.95
2023-04-18T00:10:12.806Z,75.59
2023-04-18T00:12:41.382Z,75.68
2023-04-18T00:15:10.889Z,75.58
2023-04-18T00:17:40.108Z,75.69
2023-04-18T00:20:12.841Z,75.71
2023-04-18T00:22:42.899Z,75.78
2023-04-18T00:25:11.649Z,75.68
2023-04-18T00:27:40.071Z,75.86
2023-04-18T00:30:09.198Z,76.15
2023-04-18T00:32:39.868Z,75.95
2023-04-18T00:35:11.099Z,75.70
2023-04-18T00:37:39.705Z,75.91
2023-04-18T00:40:09.299Z,75.82
2023-04-18T00:42:37.781Z,75.80
2023-04-18T00:45:07.384Z,75.80
2023-04-18T00:47:36.494Z,75.57
2023-04-18T00:50:05.980Z,75.77
2023-04-18T00:52:36.179Z,75.56
2023-04-18T00:55:06.658Z,75.54
2023-04-18T00:57:36.444Z,75.79
2023-04-18T01:00:09.941Z,75.86
2023-04-18T01:02:39.830Z,75.69
2023-04-18T01:05:08.952Z,75.76
2023-04-18T01:07:40.884Z,75.67
2023-04-18T01:10:10.546Z,75.84
2023-04-18T01:12:39.611Z,75.44
2023-04-18T01:15:08.386Z,75.50
2023-04-18T01:17:38.693Z,75.53
2023-04-18T01:20:11.104Z,75.63
2023-04-18T01:22:41.246Z,75.14
2023-04-18T01:25:10.838Z,75.31
2023-04-18T01:27:39.202Z,75.29
2023-04-18T01:30:11.454Z,75.39
2023-04-18T01:32:40.271Z,75.60
2023-04-18T01:35:09.338Z,75.52
2023-04-18T01:37:37.957Z,75.69
2023-04-18T01:40:07.344Z,75.94
2023-04-18T01:42:35.873Z,75.90
2023-04-18T01:45:07.840Z,76.11
2023-04-18T01:47:36.260Z,76.34
2023-04-18T01:50:05.441Z,76.31
2023-04-18T01:52:34.045Z,76.46
2023-04-18T01:55:06.307Z,76.38
2023-04-18T01:57:36.870Z,76.38
2023-04-18T02:00:06.439Z,76.49
2023-04-18T02:02:43.214Z,76.71
2023-04-18T02:05:11.736Z,76.82
2023-04-18T02:07:41.414Z,76.73
2023-04-18T02:10:11.107Z,76.95
2023-04-18T02:12:39.506Z,76.97
2023-04-18T02:15:08.797Z,77.12
2023-04-18T02:17:38.088Z,77.32
2023-04-18T02:20:08.344Z,77.46
2023-04-18T02:22:40.586Z,77.57
2023-04-18T02:25:11.953Z,77.56
2023-04-18T02:27:40.714Z,77.60
2023-04-18T02:30:09.539Z,77.78
2023-04-18T02:32:41.601Z,77.76
2023-04-18T02:35:12.685Z,77.73
2023-04-18T02:37:41.412Z,77.83
2023-04-18T02:40:10.642Z,77.84
2023-04-18T02:42:39.382Z,77.91
2023-04-18T02:45:08.604Z,77.88
2023-04-18T02:47:47.361Z,77.93
2023-04-18T02:50:19.908Z,77.90
2023-04-18T02:52:48.258Z,77.90
2023-04-18T02:55:18.385Z,77.96
2023-04-18T02:57:47.263Z,78.12
2023-04-18T03:00:44.861Z,78.29
2023-04-18T03:03:39.216Z,78.31
2023-04-18T03:06:23.133Z,78.36
2023-04-18T03:08:51.943Z,78.22
2023-04-18T03:11:23.115Z,78.19
2023-04-18T03:13:51.569Z,78.00
2023-04-18T03:16:20.188Z,78.06
2023-04-18T03:18:49.859Z,77.97
2023-04-18T03:21:18.340Z,78.16
2023-04-18T03:31:30.131Z,78.42
2023-04-18T03:33:58.660Z,78.47
2023-04-18T03:36:29.089Z,78.41
2023-04-18T03:38:57.709Z,78.02
2023-04-18T03:41:26.251Z,78.08
2023-04-18T03:43:56.376Z,77.95
2023-04-18T03:46:24.745Z,78.10
2023-04-18T03:48:54.380Z,78.05
2023-04-18T03:51:22.775Z,77.94
2023-04-18T03:53:51.326Z,78.07
2023-04-18T03:56:19.700Z,78.01
2023-04-18T03:58:52.522Z,78.06
2023-04-18T04:01:21.995Z,78.14
2023-04-18T04:03:52.363Z,78.15
2023-04-18T04:06:21.203Z,78.38
2023-04-18T04:08:49.691Z,78.29
2023-04-18T04:11:22.265Z,78.40
2023-04-18T04:13:51.511Z,78.35
2023-04-18T04:16:22.509Z,78.26
2023-04-18T04:18:51.828Z,77.87
2023-04-18T04:21:21.923Z,77.93
2023-04-18T04:23:52.754Z,77.88
2023-04-18T04:26:27.867Z,77.52
2023-04-18T04:29:03.804Z,77.57
2023-04-18T04:31:33.490Z,77.63
2023-04-18T04:34:01.928Z,77.87
2023-04-18T04:36:30.797Z,77.88
2023-04-18T04:38:59.755Z,77.81
2023-04-18T04:41:33.675Z,77.89
2023-04-18T04:44:02.312Z,78.28
2023-04-18T04:46:34.166Z,77.97
2023-04-18T04:49:05.097Z,77.99
2023-04-18T04:51:44.425Z,77.92
2023-04-18T04:54:12.944Z,77.95
2023-04-18T04:56:41.644Z,78.15
2023-04-18T04:59:12.866Z,78.36
2023-04-18T05:01:43.391Z,78.47
2023-04-18T05:04:12.887Z,78.74
2023-04-18T05:06:41.820Z,78.83
2023-04-18T05:09:10.618Z,78.79
2023-04-18T05:11:40.543Z,79.19
2023-04-18T05:14:08.717Z,79.27
2023-04-18T05:16:37.487Z,79.26
2023-04-18T05:19:08.837Z,79.37
2023-04-18T05:21:38.143Z,79.11
2023-04-18T05:24:06.543Z,79.10
2023-04-18T05:26:35.159Z,78.92
2023-04-18T05:29:03.524Z,78.70
2023-04-18T05:31:32.497Z,78.67
2023-04-18T05:34:00.886Z,78.68
2023-04-18T05:36:35.715Z,78.53
2023-04-18T05:39:04.405Z,78.19
2023-04-18T05:41:35.249Z,78.01
2023-04-18T05:44:05.786Z,77.84
2023-04-18T05:46:35.048Z,77.38
2023-04-18T05:49:05.890Z,77.79
2023-04-18T05:51:34.697Z,77.92
2023-04-18T05:54:03.350Z,78.07
2023-04-18T05:56:32.164Z,78.48
2023-04-18T05:59:00.527Z,78.70
2023-04-18T06:01:29.021Z,78.80
2023-04-18T06:03:57.494Z,79.13
2023-04-18T06:06:26.167Z,79.23
2023-04-18T06:08:54.432Z,79.51
2023-04-18T06:11:23.350Z,79.35
2023-04-18T06:20:52.845Z,80.19
2023-04-18T06:23:21.095Z,80.49
2023-04-18T06:25:48.220Z,80.70
2023-04-18T06:28:17.264Z,81.08
2023-04-18T06:30:45.289Z,81.39
2023-04-18T06:33:12.429Z,82.13
2023-04-18T06:35:42.654Z,82.20
2023-04-18T06:38:11.100Z,82.50
2023-04-18T06:40:38.658Z,82.89
2023-04-18T06:43:06.033Z,82.75
2023-04-18T06:45:36.586Z,83.07
2023-04-18T06:48:27.391Z,83.36
2023-04-18T06:50:54.411Z,83.53
2023-04-18T06:53:22.391Z,83.87
2023-04-18T06:55:49.302Z,83.83
2023-04-18T06:58:17.708Z,83.78
2023-04-18T07:00:48.418Z,83.66
2023-04-18T07:03:15.779Z,83.66
2023-04-18T07:05:43.408Z,83.79
2023-04-18T07:08:11.126Z,83.86
2023-04-18T07:10:38.175Z,83.93
2023-04-18T07:13:05.803Z,83.64
2023-04-18T07:15:38.199Z,83.40
2023-04-18T07:18:05.388Z,83.49
2023-04-18T07:20:32.545Z,83.42
2023-04-18T07:23:02.692Z,83.52
2023-04-18T07:25:52.344Z,83.67
2023-04-18T07:28:20.540Z,83.71
2023-04-18T07:30:48.459Z,83.46
2023-04-18T07:33:17.190Z,83.80
2023-04-18T07:35:45.328Z,84.05
2023-04-18T07:38:12.459Z,83.79
2023-04-18T07:40:39.274Z,83.94
2023-04-18T07:43:06.308Z,83.86
2023-04-18T07:45:37.689Z,84.02
2023-04-18T07:48:06.188Z,84.08
2023-04-18T07:50:33.824Z,83.12
2023-04-18T07:53:12.034Z,82.65
2023-04-18T07:55:38.977Z,82.69
2023-04-18T07:58:06.486Z,82.62
2023-04-18T08:00:33.541Z,82.77
2023-04-18T08:03:00.883Z,82.40
2023-04-18T08:05:29.914Z,82.01
2023-04-18T08:08:02.622Z,81.92
2023-04-18T08:10:29.579Z,81.75
2023-04-18T08:12:56.784Z,82.15
2023-04-18T08:15:23.913Z,81.89
2023-04-18T08:17:51.073Z,80.83
2023-04-18T08:20:18.353Z,80.45
2023-04-18T08:23:02.375Z,80.53
2023-04-18T08:25:33.041Z,80.23
2023-04-18T08:49:42.903Z,77.85
2023-04-18T08:52:12.469Z,76.48
2023-04-18T08:54:47.253Z,75.78
2023-04-18T08:57:27.004Z,75.63
2023-04-18T09:00:16.649Z,75.34
2023-04-18T09:03:08.615Z,75.53
2023-04-18T09:05:38.206Z,75.92
2023-04-18T09:08:22.045Z,75.50
2023-04-18T09:10:50.726Z,74.56
2023-04-18T09:13:37.535Z,74.38
2023-04-18T09:16:06.422Z,74.25
2023-04-18T09:18:35.630Z,74.40
2023-04-18T09:21:19.548Z,74.97
2023-04-18T09:23:48.250Z,75.22
2023-04-18T09:26:33.212Z,75.09
2023-04-18T09:29:03.381Z,75.10
2023-04-18T09:31:35.884Z,74.58
2023-04-18T09:34:05.302Z,74.13
2023-04-18T09:36:45.450Z,73.92
2023-04-18T09:39:32.005Z,73.70
2023-04-18T09:42:04.391Z,74.21
2023-04-18T09:44:33.607Z,73.90
2023-04-18T09:47:21.978Z,73.38
2023-04-18T09:49:52.807Z,73.27
2023-04-18T09:52:26.334Z,73.16
2023-04-18T09:54:58.769Z,73.23
2023-04-18T09:57:29.020Z,73.16
2023-04-18T10:00:31.371Z,72.90
2023-04-18T10:03:08.309Z,72.14
2023-04-18T10:06:02.773Z,72.26
2023-04-18T10:08:33.267Z,72.53
2023-04-18T10:11:01.620Z,72.68
2023-04-18T10:13:29.970Z,72.11
2023-04-18T10:16:00.719Z,71.73
2023-04-18T10:18:29.863Z,70.79
2023-04-18T10:21:03.589Z,70.52
2023-04-18T10:23:32.463Z,70.36
2023-04-18T10:26:01.717Z,70.32
2023-04-18T10:34:46.557Z,68.51
2023-04-18T10:37:13.764Z,68.58
2023-04-18T10:39:53.261Z,68.23
2023-04-18T10:42:49.471Z,68.21
2023-04-18T10:45:30.708Z,67.78
2023-04-18T10:48:23.434Z,67.41
2023-04-18T10:51:33.217Z,67.49
2023-04-18T10:54:00.374Z,67.58
2023-04-18T10:56:28.653Z,67.44
2023-04-18T10:58:55.905Z,67.52
2023-04-18T11:01:31.028Z,67.56
2023-04-18T11:03:59.321Z,66.85
2023-04-18T11:06:27.310Z,65.73
2023-04-18T11:09:14.403Z,65.20
2023-04-18T11:11:45.377Z,64.90
2023-04-18T11:14:12.669Z,64.55
2023-04-18T11:16:40.543Z,64.38
2023-04-18T11:19:41.016Z,64.62
2023-04-18T11:22:28.492Z,64.64
2023-04-18T11:24:59.969Z,64.41
2023-04-18T11:27:28.681Z,64.27
2023-04-18T11:30:15.753Z,64.39
2023-04-18T11:32:43.621Z,64.61
2023-04-18T11:35:12.453Z,64.63
2023-04-18T11:37:40.615Z,64.73
2023-04-18T11:40:11.318Z,64.38
2023-04-18T11:42:42.865Z,64.16
2023-04-18T11:45:13.218Z,64.47
2023-04-18T11:47:42.531Z,65.00
2023-04-18T11:50:11.167Z,65.01
2023-04-18T11:52:40.525Z,64.88
2023-04-18T11:55:14.104Z,65.16
2023-04-18T11:57:41.307Z,65.66
2023-04-18T12:00:11.604Z,65.79
2023-04-18T12:02:44.272Z,66.27
2023-04-18T12:05:13.999Z,66.27
2023-04-18T12:34:56.967Z,68.85
2023-04-18T12:37:25.963Z,69.18
2023-04-18T12:39:54.661Z,69.33
2023-04-18T12:42:23.549Z,69.58
2023-04-18T12:44:56.022Z,70.06
2023-04-18T12:47:27.993Z,70.68
2023-04-18T12:49:57.720Z,70.77
2023-04-18T12:52:25.964Z,71.21
2023-04-18T12:54:56.457Z,70.64
2023-04-18T12:57:27.143Z,70.88
2023-04-18T12:59:56.178Z,71.40
2023-04-18T13:02:24.863Z,71.75
2023-04-18T13:04:53.680Z,72.65
2023-04-18T13:07:22.165Z,73.95
2023-04-18T13:28:52.859Z,77.27
2023-04-18T13:31:21.399Z,77.81
2023-04-18T13:33:52.625Z,78.25
2023-04-18T13:36:22.460Z,78.90
2023-04-18T13:38:55.289Z,79.53
2023-04-18T13:41:24.564Z,80.41
2023-04-18T13:43:53.526Z,81.27
2023-04-18T13:46:23.549Z,82.30
2023-04-18T13:48:51.936Z,82.99
2023-04-18T13:51:20.640Z,83.67
2023-04-18T13:53:49.725Z,84.49
2023-04-18T13:56:18.800Z,85.38
2023-04-18T13:58:47.138Z,86.20
2023-04-18T14:01:16.986Z,86.53
2023-04-18T14:03:47.173Z,87.07
2023-04-18T14:06:15.952Z,88.18
2023-04-18T14:08:44.471Z,88.72
2023-04-18T14:11:16.450Z,89.29
2023-04-18T14:13:44.820Z,89.99
2023-04-18T14:16:13.399Z,90.39
2023-04-18T14:18:42.130Z,90.76
2023-04-18T14:21:10.873Z,90.92
2023-04-18T14:23:57.155Z,90.94
2023-04-18T14:26:26.011Z,91.29
2023-04-18T14:28:54.323Z,91.79
2023-04-18T14:31:23.181Z,91.94
2023-04-18T14:33:54.411Z,92.34
2023-04-18T14:36:22.811Z,92.32
2023-04-18T14:38:51.429Z,91.87
2023-04-18T14:41:19.606Z,91.21
2023-04-18T14:43:47.924Z,90.54
2023-04-18T14:46:17.090Z,89.62
2023-04-18T14:48:49.079Z,89.00
2023-04-18T14:51:17.917Z,88.82
2023-04-18T14:53:49.153Z,88.68
2023-04-18T14:56:21.284Z,88.24
2023-04-18T14:58:49.630Z,88.28
2023-04-18T15:01:17.902Z,88.30
2023-04-18T15:03:46.480Z,88.44
2023-04-18T15:06:15.038Z,88.12
2023-04-18T15:08:44.946Z,88.32
2023-04-18T15:11:13.853Z,88.44
2023-04-18T15:13:52.710Z,88.40
2023-04-18T15:17:15.484Z,88.59
2023-04-18T15:19:46.647Z,88.61
2023-04-18T15:22:17.199Z,88.87
2023-04-18T15:24:51.735Z,89.25
2023-04-18T15:27:20.349Z,89.34
2023-04-18T15:29:48.713Z,89.56
2023-04-18T15:32:17.266Z,89.98
2023-04-18T15:34:46.161Z,90.08
2023-04-18T15:37:14.910Z,90.67
2023-04-18T15:39:43.441Z,91.00
2023-04-18T15:42:11.907Z,91.57
2023-04-18T15:44:43.173Z,92.14
2023-04-18T15:47:11.680Z,92.52
2023-04-18T15:49:40.251Z,93.17
2023-04-18T15:52:08.799Z,93.54
2023-04-18T15:54:54.165Z,94.22
2023-04-18T15:57:22.486Z,94.76
2023-04-18T15:59:50.822Z,94.90
2023-04-18T16:02:19.331Z,95.27
2023-04-18T16:04:47.859Z,95.70
2023-04-18T16:07:33.656Z,96.13
2023-04-18T16:10:06.501Z,96.44
2023-04-18T16:12:35.030Z,96.89
2023-04-18T16:15:08.761Z,97.29
2023-04-18T16:17:37.759Z,98.03
2023-04-18T16:20:08.607Z,98.91
2023-04-18T16:22:37.438Z,99.49
2023-04-18T16:25:06.962Z,99.96
2023-04-18T16:27:35.741Z,100.00
2023-04-18T16:30:05.309Z,100.00
2023-04-18T16:32:33.848Z,100.00
2023-04-18T16:35:08.053Z,100.00
2023-04-18T16:37:40.421Z,100.00
2023-04-18T16:40:12.897Z,100.00
2023-04-18T16:42:42.092Z,100.00
2023-04-18T16:45:10.748Z,100.00
2023-04-18T16:47:39.839Z,100.00
2023-04-18T16:50:09.221Z,100.00
2023-04-18T16:52:37.960Z,100.00
2023-04-18T16:55:06.848Z,100.00
2023-04-18T16:57:35.146Z,100.00
2023-04-18T17:00:05.089Z,100.00
2023-04-18T17:02:35.340Z,100.00
2023-04-18T17:05:04.291Z,100.00
2023-04-18T17:07:32.720Z,100.00
2023-04-18T17:10:02.247Z,100.00
2023-04-18T17:12:31.652Z,100.00
2023-04-18T17:14:59.789Z,100.00
2023-04-18T17:17:28.345Z,100.00
2023-04-18T17:19:58.824Z,100.00
2023-04-18T17:22:27.157Z,100.00
2023-04-18T17:24:58.275Z,100.00
2023-04-18T17:27:26.623Z,100.00
2023-04-18T17:29:57.179Z,100.00
2023-04-18T17:32:25.488Z,100.00
2023-04-18T17:34:54.212Z,100.00
2023-04-18T17:37:23.023Z,100.00
2023-04-18T17:39:51.484Z,100.00
2023-04-18T17:42:21.423Z,100.00
2023-04-18T17:44:49.980Z,100.00
2023-04-18T17:47:18.437Z,100.00
2023-04-18T17:49:46.866Z,100.00
2023-04-18T17:52:15.309Z,100.00
2023-04-18T17:54:44.119Z,100.00
2023-04-18T17:57:13.103Z,100.00
2023-04-18T17:59:41.403Z,100.00
2023-04-18T18:02:11.791Z,100.00
2023-04-18T18:04:40.518Z,100.00
2023-04-18T18:07:12.138Z,100.00
2023-04-18T18:09:45.749Z,100.00
2023-04-18T18:12:14.236Z,100.00
2023-04-18T18:14:45.705Z,100.00
2023-04-18T18:17:14.252Z,100.00
2023-04-18T18:19:45.604Z,100.00
2023-04-18T18:22:13.984Z,100.00
2023-04-18T18:24:42.472Z,100.00
2023-04-18T18:27:11.045Z,100.00
2023-04-18T18:29:39.519Z,100.00
2023-04-18T18:32:07.903Z,100.00
2023-04-18T18:34:36.481Z,100.00
2023-04-18T18:37:04.619Z,100.00
2023-04-18T18:39:33.034Z,100.00
2023-04-18T18:42:02.465Z,100.00
2023-04-18T18:44:30.708Z,100.00
2023-04-18T18:47:00.045Z,100.00
2023-04-18T18:49:28.632Z,100.00
2023-04-18T18:51:57.293Z,100.00
2023-04-18T18:54:26.207Z,100.00
2023-04-18T18:56:54.876Z,100.00
2023-04-18T18:59:23.192Z,100.00
2023-04-18T19:01:51.854Z,100.00
2023-04-18T19:04:20.671Z,100.00
2023-04-18T19:06:49.003Z,100.00
2023-04-18T19:09:17.664Z,100.00
2023-04-18T19:11:49.190Z,100.00
2023-04-18T19:14:17.534Z,100.00
2023-04-18T20:15:45.456Z,100.00
2023-04-18T23:01:29.256Z,100.00
